Time;durP1;ratioP1;P1;durP2;ratioP2;P2;SDS_P1;SDS_P2;PMS_P1;PMS_P2;Temp;Humidity;BMP_temperature;BMP_pressure;BME280_temperature;BME280_humidity;BME280_pressure;Samples;Min_cycle;Max_cycle;Signal;HPM_P1;HPM_P2
2021/11/02 00:01:09;;;;;;;8.27;2.17;;;7.30;99.90;;;;;;5002963;28;20224;-79
2021/11/02 00:03:36;;;;;;;7.03;1.83;;;7.20;99.90;;;;;;5043406;28;20727;-80
2021/11/02 00:06:03;;;;;;;5.77;2.10;;;7.20;99.90;;;;;;5054223;28;20291;-80
2021/11/02 00:08:30;;;;;;;5.03;2.20;;;7.20;99.90;;;;;;5053542;28;20229;-80
2021/11/02 00:10:57;;;;;;;4.60;2.10;;;7.30;99.90;;;;;;5054237;28;20203;-79
2021/11/02 00:13:34;;;;;;;4.80;2.03;;;7.30;99.90;;;;;;5052944;28;20287;-79
2021/11/02 00:16:11;;;;;;;5.57;2.40;;;7.20;99.90;;;;;;5045363;28;20207;-80
2021/11/02 00:18:43;;;;;;;6.60;2.20;;;7.30;99.90;;;;;;5053049;28;20207;-80
2021/11/02 00:21:10;;;;;;;4.67;1.80;;;7.10;99.90;;;;;;5053198;28;20196;-80
2021/11/02 00:23:38;;;;;;;3.77;1.50;;;7.20;99.90;;;;;;5052722;28;20206;-80
2021/11/02 00:26:05;;;;;;;3.53;1.60;;;7.10;99.90;;;;;;5053779;28;20197;-80
2021/11/02 00:28:33;;;;;;;6.63;1.70;;;7.00;99.90;;;;;;5053891;28;20230;-80
2021/11/02 00:31:00;;;;;;;5.60;2.10;;;7.10;99.90;;;;;;5053020;28;20203;-79
2021/11/02 00:33:28;;;;;;;4.20;1.67;;;7.00;99.90;;;;;;5052065;28;20199;-79
2021/11/02 00:35:56;;;;;;;3.90;1.80;;;7.00;99.90;;;;;;5053221;28;20318;-80
2021/11/02 00:38:23;;;;;;;4.53;1.80;;;6.90;99.90;;;;;;5053304;28;20199;-80
2021/11/02 00:40:50;;;;;;;4.43;1.43;;;6.90;99.90;;;;;;5052171;28;20286;-80
2021/11/02 00:43:17;;;;;;;4.77;2.10;;;6.90;99.90;;;;;;5052790;28;20229;-80
2021/11/02 00:45:45;;;;;;;3.67;1.73;;;6.80;99.90;;;;;;5052842;28;20221;-79
2021/11/02 00:48:23;;;;;;;3.23;1.50;;;6.80;99.90;;;;;;5052411;28;20207;-80
2021/11/02 00:50:51;;;;;;;4.87;1.80;;;6.80;99.90;;;;;;5051808;28;20203;-79
2021/11/02 00:53:18;;;;;;;5.97;2.17;;;6.80;99.90;;;;;;5047081;28;20221;-80
2021/11/02 00:55:45;;;;;;;5.83;2.30;;;6.80;99.90;;;;;;5051644;28;20599;-80
2021/11/02 00:58:12;;;;;;;3.23;1.97;;;6.70;99.90;;;;;;5051809;28;20289;-80
2021/11/02 01:00:40;;;;;;;3.63;1.70;;;6.70;99.90;;;;;;5053246;28;20204;-80
2021/11/02 01:03:09;;;;;;;4.10;1.57;;;6.70;99.90;;;;;;5052605;28;20293;-79
2021/11/02 01:05:36;;;;;;;5.77;2.00;;;6.70;99.90;;;;;;5051458;28;20297;-80
2021/11/02 01:08:06;;;;;;;5.87;1.67;;;6.70;99.90;;;;;;5043252;28;20202;-80
2021/11/02 01:10:34;;;;;;;4.53;1.73;;;6.60;99.90;;;;;;5053233;28;20230;-79
2021/11/02 01:13:01;;;;;;;9.80;1.90;;;6.60;99.90;;;;;;5052528;28;20779;-79
2021/11/02 01:16:02;;;;;;;3.20;1.70;;;6.50;99.90;;;;;;5053137;28;20230;-80
2021/11/02 01:18:29;;;;;;;2.27;1.37;;;6.50;99.90;;;;;;5052634;28;20243;-79
2021/11/02 01:20:57;;;;;;;4.17;1.70;;;6.50;99.90;;;;;;5052576;28;20206;-79
2021/11/02 01:23:25;;;;;;;4.57;1.80;;;6.40;99.90;;;;;;5053208;28;20198;-80
2021/11/02 01:25:52;;;;;;;5.30;1.50;;;6.40;99.90;;;;;;5052071;28;20665;-80
2021/11/02 01:28:19;;;;;;;4.03;1.67;;;6.40;99.90;;;;;;5052357;28;20242;-79
2021/11/02 01:30:46;;;;;;;4.57;1.50;;;6.30;99.90;;;;;;5052702;28;20206;-80
2021/11/02 01:33:13;;;;;;;4.87;1.50;;;6.20;99.90;;;;;;5051417;28;20310;-79
2021/11/02 01:35:40;;;;;;;3.73;1.50;;;6.20;99.90;;;;;;5053133;28;20634;-79
2021/11/02 01:38:07;;;;;;;4.77;1.70;;;6.20;99.90;;;;;;5052806;28;20246;-79
2021/11/02 01:40:36;;;;;;;2.70;1.47;;;6.20;99.90;;;;;;5052603;28;20204;-79
2021/11/02 01:43:03;;;;;;;2.77;1.33;;;6.10;99.90;;;;;;5052757;28;20292;-79
2021/11/02 01:45:30;;;;;;;3.43;1.40;;;6.20;99.90;;;;;;5052432;28;20206;-79
2021/11/02 01:47:57;;;;;;;4.23;1.43;;;6.20;99.90;;;;;;5034305;28;20281;-79
2021/11/02 01:50:25;;;;;;;5.13;1.30;;;6.20;99.90;;;;;;5051940;28;20692;-79
2021/11/02 01:52:52;;;;;;;3.77;1.40;;;6.10;99.90;;;;;;5052217;28;20308;-80
2021/11/02 01:55:19;;;;;;;2.80;1.37;;;6.10;99.90;;;;;;5051594;28;20203;-79
2021/11/02 01:57:47;;;;;;;3.90;1.83;;;6.00;99.90;;;;;;5052369;28;20677;-79
2021/11/02 02:00:17;;;;;;;3.47;1.50;;;6.10;99.90;;;;;;5050783;28;20238;-79
2021/11/02 02:02:52;;;;;;;4.07;1.50;;;6.00;99.90;;;;;;5032505;28;20254;-79
2021/11/02 02:05:28;;;;;;;5.10;1.73;;;6.10;99.90;;;;;;5049148;28;20202;-79
2021/11/02 02:08:04;;;;;;;5.30;1.70;;;5.90;99.90;;;;;;5052323;28;20205;-79
2021/11/02 02:10:40;;;;;;;3.53;1.73;;;5.80;99.90;;;;;;5051750;28;20242;-79
2021/11/02 02:13:21;;;;;;;5.00;1.53;;;5.80;99.90;;;;;;5051321;28;20256;-79
2021/11/02 02:15:53;;;;;;;4.47;1.90;;;5.90;99.90;;;;;;5051720;28;20253;-79
2021/11/02 02:18:27;;;;;;;5.20;1.83;;;5.90;99.90;;;;;;5051578;28;20714;-79
2021/11/02 02:21:17;;;;;;;5.67;1.50;;;5.80;99.90;;;;;;5051742;28;20715;-79
2021/11/02 02:23:55;;;;;;;4.83;1.73;;;5.90;99.90;;;;;;5051475;28;20284;-79
2021/11/02 02:26:36;;;;;;;4.20;1.63;;;6.00;99.90;;;;;;5051892;28;20566;-79
2021/11/02 02:29:07;;;;;;;2.27;1.70;;;5.90;99.90;;;;;;5049049;28;20309;-79
2021/11/02 02:31:39;;;;;;;4.57;1.40;;;5.80;99.90;;;;;;5050727;28;20229;-79
2021/11/02 02:34:11;;;;;;;5.30;1.83;;;5.70;99.90;;;;;;5032077;28;20207;-79
2021/11/02 02:36:39;;;;;;;3.77;1.70;;;5.80;99.90;;;;;;5048780;28;20289;-79
2021/11/02 02:39:08;;;;;;;5.57;1.80;;;5.70;99.90;;;;;;5051814;28;20387;-80
2021/11/02 02:41:37;;;;;;;2.80;1.60;;;5.80;99.90;;;;;;5051390;28;20252;-80
2021/11/02 02:44:08;;;;;;;4.23;1.77;;;5.70;99.90;;;;;;5050597;28;20233;-79
2021/11/02 02:46:36;;;;;;;4.73;1.80;;;5.70;99.90;;;;;;5051430;28;20659;-79
2021/11/02 02:49:05;;;;;;;5.20;1.77;;;5.70;99.90;;;;;;5051293;28;20196;-79
2021/11/02 02:51:34;;;;;;;6.97;1.80;;;5.80;99.90;;;;;;5051694;28;20209;-79
2021/11/02 02:54:02;;;;;;;5.63;1.80;;;5.80;99.90;;;;;;5050781;28;20232;-79
2021/11/02 02:56:31;;;;;;;8.03;1.87;;;5.70;99.90;;;;;;5050736;28;20200;-79
2021/11/02 02:59:02;;;;;;;4.67;1.50;;;5.80;99.90;;;;;;5050918;28;20207;-79
2021/11/02 03:01:31;;;;;;;5.27;1.50;;;5.80;99.90;;;;;;5051566;28;20197;-79
2021/11/02 03:04:02;;;;;;;4.30;1.57;;;5.80;99.90;;;;;;5051546;28;20228;-79
2021/11/02 03:06:44;;;;;;;5.10;1.60;;;5.70;99.90;;;;;;5051213;28;20198;-79
2021/11/02 03:09:11;;;;;;;4.23;1.60;;;5.70;99.90;;;;;;5034994;28;20200;-79
2021/11/02 03:11:40;;;;;;;5.13;1.60;;;5.60;99.90;;;;;;5051152;28;20293;-79
2021/11/02 03:14:10;;;;;;;6.57;1.90;;;5.60;99.90;;;;;;5050936;28;20639;-80
2021/11/02 03:16:49;;;;;;;4.00;1.53;;;5.70;99.90;;;;;;5050806;28;20209;-79
2021/11/02 03:19:52;;;;;;;4.67;1.77;;;5.60;99.90;;;;;;5037057;28;20210;-79
2021/11/02 03:50:26;;;;;;;7.30;1.40;;;5.70;99.90;;;;;;4974090;28;20249;-79
2021/11/02 03:55:50;;;;;;;6.57;1.43;;;5.60;99.90;;;;;;4992906;28;20286;-79
2021/11/02 03:58:22;;;;;;;4.97;1.60;;;5.50;99.90;;;;;;4990427;28;20207;-79
2021/11/02 05:49:25;;;;;;;3.00;1.67;;;4.90;99.90;;;;;;5052734;28;20289;-79
2021/11/02 05:57:32;;;;;;;4.90;2.13;;;4.90;99.90;;;;;;5052563;28;20275;-79
2021/11/02 06:00:02;;;;;;;6.10;1.87;;;4.90;99.90;;;;;;5051934;28;20204;-79
2021/11/02 06:02:48;;;;;;;9.80;4.60;;;4.80;99.90;;;;;;5051622;28;20198;-81
2021/11/02 06:08:24;;;;;;;16.30;7.77;;;4.90;99.90;;;;;;5041753;28;20210;-81
2021/11/02 06:30:38;;;;;;;11.80;6.30;;;4.40;99.90;;;;;;5051078;28;20734;-82
2021/11/02 06:33:11;;;;;;;10.03;5.40;;;4.40;99.90;;;;;;5050886;28;20643;-81
2021/11/02 06:35:50;;;;;;;9.13;5.73;;;4.30;99.90;;;;;;5051031;28;20204;-80
2021/11/02 06:47:07;;;;;;;10.13;4.37;;;4.30;99.90;;;;;;5051493;28;20303;-81
2021/11/02 06:49:58;;;;;;;9.70;3.90;;;4.60;99.90;;;;;;5051274;28;20275;-81
2021/11/02 06:55:51;;;;;;;9.50;3.77;;;4.60;99.90;;;;;;5043751;28;20225;-81
2021/11/02 06:58:44;;;;;;;8.50;3.63;;;4.70;99.90;;;;;;5046786;28;20698;-81
2021/11/02 07:15:46;;;;;;;7.00;3.30;;;4.10;99.90;;;;;;5055073;28;20242;-80
2021/11/02 07:18:16;;;;;;;9.57;3.27;;;4.10;99.90;;;;;;5055495;28;20207;-80
2021/11/02 07:20:49;;;;;;;5.70;3.53;;;4.30;99.90;;;;;;5054862;28;20736;-80
2021/11/02 07:23:25;;;;;;;9.03;4.37;;;4.70;99.90;;;;;;5055285;28;20197;-80
2021/11/02 07:26:04;;;;;;;6.40;4.23;;;5.30;99.90;;;;;;5054912;28;20279;-80
2021/11/02 08:46:59;;;;;;;2.22;1.63;;;17.20;99.90;;;;;;5036550;28;20276;-80
2021/11/02 08:49:28;;;;;;;3.92;2.00;;;16.90;99.90;;;;;;5053112;28;20225;-80
2021/11/02 08:51:58;;;;;;;3.13;1.90;;;15.30;99.90;;;;;;5052716;28;20206;-80
2021/11/02 08:54:26;;;;;;;2.72;1.60;;;15.50;99.90;;;;;;5053042;28;20223;-80
2021/11/02 08:56:56;;;;;;;6.15;1.67;;;16.00;99.90;;;;;;5052160;28;20641;-80
2021/11/02 08:59:23;;;;;;;2.33;1.40;;;16.10;99.90;;;;;;5053019;28;20270;-80
2021/11/02 09:01:56;;;;;;;3.30;1.50;;;16.80;99.90;;;;;;5052788;28;20571;-80
2021/11/02 09:04:32;;;;;;;2.35;1.35;;;16.50;99.90;;;;;;5052704;28;20721;-81
2021/11/02 09:07:02;;;;;;;3.03;1.80;;;16.10;99.90;;;;;;5053020;28;20254;-80
2021/11/02 09:09:32;;;;;;;3.28;1.40;;;14.10;99.90;;;;;;5052909;28;20200;-80
2021/11/02 09:12:03;;;;;;;5.30;1.60;;;13.10;99.90;;;;;;5052805;28;20283;-80
2021/11/02 09:14:33;;;;;;;3.28;1.15;;;13.30;99.90;;;;;;5052592;28;20232;-80
2021/11/02 09:17:01;;;;;;;3.40;1.30;;;13.90;99.90;;;;;;5052356;28;20208;-80
2021/11/02 09:19:30;;;;;;;5.35;1.35;;;14.60;99.90;;;;;;5052407;28;20687;-80
2021/11/02 09:21:58;;;;;;;4.65;1.40;;;14.30;99.90;;;;;;5052214;28;20200;-80
2021/11/02 09:24:25;;;;;;;4.50;1.40;;;14.40;99.90;;;;;;5051999;28;20223;-80
2021/11/02 09:26:52;;;;;;;3.25;1.40;;;14.40;99.90;;;;;;5051820;28;20206;-80
2021/11/02 09:29:20;;;;;;;6.27;1.50;;;14.30;99.90;;;;;;5046371;28;20211;-80
2021/11/02 09:31:48;;;;;;;3.13;1.40;;;14.50;99.90;;;;;;5052271;28;20658;-80
2021/11/02 09:34:15;;;;;;;3.77;1.33;;;14.20;99.90;;;;;;5052112;28;20269;-80
2021/11/02 09:36:53;;;;;;;2.63;1.23;;;14.10;99.90;;;;;;5045076;28;20278;-80
2021/11/02 09:39:21;;;;;;;2.53;1.10;;;14.30;99.90;;;;;;5052523;28;20286;-81
2021/11/02 09:42:13;;;;;;;3.27;1.50;;;14.00;99.90;;;;;;5052527;28;20290;-80
2021/11/02 09:45:09;;;;;;;3.63;1.30;;;13.70;99.90;;;;;;4968894;28;20221;-80
2021/11/02 09:48:24;;;;;;;2.97;1.20;;;14.50;99.90;;;;;;4969587;28;20198;-80
2021/11/02 09:51:28;;;;;;;5.50;1.60;;;14.00;99.90;;;;;;4963723;28;20210;-81
2021/11/02 09:54:25;;;;;;;3.50;1.40;;;14.60;99.90;;;;;;4963765;28;20305;-81
2021/11/02 09:57:09;;;;;;;2.97;1.40;;;14.80;99.90;;;;;;4970133;28;20199;-80
2021/11/02 10:00:10;;;;;;;7.43;1.73;;;14.40;99.90;;;;;;4969695;28;20210;-80
2021/11/02 10:03:17;;;;;;;4.30;1.30;;;14.90;99.90;;;;;;4970541;28;20209;-80
2021/11/02 10:06:09;;;;;;;5.60;1.20;;;14.50;99.90;;;;;;4909821;29;20633;-80
2021/11/02 10:08:46;;;;;;;6.33;1.30;;;13.90;99.90;;;;;;4912552;29;20348;-80
2021/11/02 10:11:25;;;;;;;2.07;1.03;;;13.80;99.90;;;;;;4913230;29;20305;-80
2021/11/02 10:14:13;;;;;;;5.23;1.30;;;14.30;99.90;;;;;;4910241;29;20318;-80
2021/11/02 10:17:17;;;;;;;2.93;1.00;;;15.10;99.90;;;;;;4909950;29;20201;-79
2021/11/02 10:20:05;;;;;;;5.97;1.47;;;15.90;99.90;;;;;;4905423;29;20676;-80
2021/11/02 10:23:09;;;;;;;4.00;1.30;;;15.50;99.90;;;;;;4992173;28;20707;-80
2021/11/02 10:26:27;;;;;;;4.33;1.30;;;14.90;99.90;;;;;;5002549;28;20232;-80
2021/11/02 10:29:23;;;;;;;5.93;1.33;;;15.00;99.90;;;;;;4911679;29;20296;-80
2021/11/02 10:31:58;;;;;;;5.47;1.70;;;16.20;99.90;;;;;;4912920;29;20244;-80
2021/11/02 10:34:34;;;;;;;4.90;1.70;;;14.40;99.90;;;;;;4912845;29;20223;-80
2021/11/02 10:37:23;;;;;;;4.27;1.57;;;13.30;99.90;;;;;;4910557;29;20206;-80
2021/11/02 10:40:16;;;;;;;3.87;1.47;;;13.10;99.90;;;;;;4911773;29;20680;-80
2021/11/02 10:42:59;;;;;;;4.67;1.50;;;12.70;99.90;;;;;;4937482;29;20741;-80
2021/11/02 10:45:30;;;;;;;5.40;1.50;;;12.00;99.90;;;;;;4951038;29;20190;-80
2021/11/02 10:48:04;;;;;;;3.57;1.40;;;12.40;99.90;;;;;;4950547;29;20776;-80
2021/11/02 10:50:36;;;;;;;4.33;1.20;;;12.30;99.90;;;;;;4950975;29;20625;-80
2021/11/02 10:53:05;;;;;;;3.10;1.20;;;12.40;99.90;;;;;;4950588;29;20215;-80
2021/11/02 10:55:51;;;;;;;2.90;1.40;;;12.20;99.90;;;;;;4950076;29;20211;-80
2021/11/02 10:58:31;;;;;;;4.07;1.30;;;11.70;99.90;;;;;;4950435;29;20199;-80
2021/11/02 11:01:03;;;;;;;4.47;1.47;;;11.50;99.90;;;;;;4950670;29;20297;-80
2021/11/02 11:03:31;;;;;;;6.63;1.57;;;12.00;99.90;;;;;;5014707;28;20298;-80
2021/11/02 11:06:00;;;;;;;6.17;1.70;;;12.00;99.90;;;;;;5048735;28;20218;-81
2021/11/02 11:08:31;;;;;;;4.10;1.53;;;11.50;99.90;;;;;;5048486;28;20732;-80
2021/11/02 11:10:59;;;;;;;7.57;1.70;;;11.00;99.90;;;;;;5049531;28;20195;-80
2021/11/02 11:13:28;;;;;;;5.47;1.77;;;11.00;99.90;;;;;;5048424;28;20640;-80
2021/11/02 11:16:09;;;;;;;5.73;1.60;;;11.30;99.90;;;;;;5050380;28;20210;-81
2021/11/02 11:18:51;;;;;;;4.40;1.80;;;11.60;99.90;;;;;;5047890;28;20764;-80
2021/11/02 11:21:18;;;;;;;4.33;2.03;;;11.90;99.90;;;;;;5049205;28;20203;-80
2021/11/02 11:23:53;;;;;;;4.00;1.73;;;11.80;99.90;;;;;;5048869;28;20198;-80
2021/11/02 11:26:24;;;;;;;5.27;2.10;;;11.70;99.90;;;;;;5049448;28;20298;-80
2021/11/02 11:28:53;;;;;;;3.83;2.03;;;11.40;99.90;;;;;;5049594;28;20307;-80
2021/11/02 11:31:23;;;;;;;4.87;1.80;;;11.40;99.90;;;;;;5049619;28;20296;-80
2021/11/02 11:33:56;;;;;;;3.30;1.60;;;11.60;99.90;;;;;;5048782;28;20224;-80
2021/11/02 11:36:27;;;;;;;4.50;1.60;;;11.80;99.90;;;;;;5046321;28;20294;-80
2021/11/02 11:38:59;;;;;;;7.90;2.00;;;11.80;99.90;;;;;;5046428;28;20200;-80
2021/11/02 11:41:28;;;;;;;4.20;1.73;;;12.00;99.90;;;;;;5048051;28;20306;-79
2021/11/02 11:43:57;;;;;;;3.67;1.50;;;12.40;99.90;;;;;;5046355;28;20224;-80
2021/11/02 11:46:28;;;;;;;3.33;1.50;;;12.80;99.90;;;;;;5048714;28;20196;-80
2021/11/02 11:48:57;;;;;;;7.17;1.63;;;12.50;99.90;;;;;;5047344;28;20239;-80
2021/11/02 11:51:26;;;;;;;4.37;1.33;;;12.80;99.90;;;;;;5051308;28;20232;-81
2021/11/02 11:58:22;;;;;;;7.30;2.10;;;12.10;99.90;;;;;;5015042;28;20288;-80
2021/11/02 12:01:24;;;;;;;6.30;2.50;;;12.30;99.90;;;;;;5013522;28;21052;-80
2021/11/02 12:06:47;;;;;;;5.33;1.80;;;;;;;;;;5011792;28;20280;-80
2021/11/02 12:09:18;;;;;;;5.33;1.83;;;;;;;;;;5003044;28;20676;-80
2021/11/02 12:12:02;;;;;;;4.37;1.60;;;;;;;;;;5005908;28;21661;-80
2021/11/02 12:14:30;;;;;;;5.43;2.00;;;;;;;;;;4995029;28;20250;-80
2021/11/02 12:17:00;;;;;;;4.47;1.70;;;;;;;;;;5005853;28;20201;-79
2021/11/02 12:19:44;;;;;;;3.50;1.80;;;;;;;;;;4996168;28;20201;-80
2021/11/02 12:22:18;;;;;;;7.03;1.90;;;;;;;;;;5004132;28;20270;-80
2021/11/02 12:25:22;;;;;;;3.07;1.63;;;;;;;;;;5006095;28;20197;-79
2021/11/02 12:28:01;;;;;;;5.67;2.10;;;;;;;;;;4961024;28;20996;-79
2021/11/02 12:30:29;;;;;;;3.83;1.43;;;;;;;;;;4964544;28;20277;-79
2021/11/02 12:32:57;;;;;;;4.20;1.63;;;12.90;99.90;;;;;;4974768;28;20340;-79
2021/11/02 12:35:48;;;;;;;3.40;1.57;;;11.70;99.90;;;;;;4991453;28;20245;-79
2021/11/02 12:38:15;;;;;;;3.07;1.53;;;11.80;99.90;;;;;;4968022;28;20230;-80
2021/11/02 12:40:45;;;;;;;3.60;1.43;;;11.50;99.90;;;;;;4991161;28;20288;-80
2021/11/02 12:43:22;;;;;;;4.30;1.47;;;11.60;99.90;;;;;;4984582;28;20201;-80
2021/11/02 12:45:50;;;;;;;5.83;1.73;;;11.80;99.90;;;;;;4990786;28;20280;-80
2021/11/02 12:48:19;;;;;;;5.87;1.47;;;11.90;99.90;;;;;;4991145;28;20200;-80
2021/11/02 12:50:48;;;;;;;3.67;1.60;;;11.80;99.90;;;;;;4990290;28;20256;-80
2021/11/02 12:53:17;;;;;;;5.67;1.17;;;12.00;99.90;;;;;;4991343;28;20281;-79
2021/11/02 12:55:45;;;;;;;4.23;1.50;;;12.00;99.90;;;;;;4990937;28;20313;-80
2021/11/02 12:58:18;;;;;;;2.63;1.47;;;12.00;99.90;;;;;;4985288;28;20202;-80
2021/11/02 13:00:50;;;;;;;4.93;1.70;;;12.20;99.90;;;;;;4979494;28;20290;-80
2021/11/02 13:03:25;;;;;;;3.87;1.63;;;12.20;99.90;;;;;;5018159;28;20206;-81
2021/11/02 13:05:59;;;;;;;8.70;2.37;;;12.10;99.90;;;;;;5053177;28;20196;-80
2021/11/02 13:08:35;;;;;;;5.50;2.10;;;12.10;99.90;;;;;;5053145;28;20691;-80
2021/11/02 13:11:07;;;;;;;4.33;2.03;;;12.00;99.90;;;;;;5053062;28;20674;-80
2021/11/02 13:13:55;;;;;;;4.67;2.00;;;12.00;99.90;;;;;;5051148;28;20231;-80
2021/11/02 13:16:22;;;;;;;4.60;2.23;;;12.10;99.90;;;;;;5053144;28;20246;-80
2021/11/02 13:18:49;;;;;;;5.80;2.23;;;11.70;99.90;;;;;;5052927;28;20258;-80
2021/11/02 13:21:24;;;;;;;5.83;2.27;;;;;;;;;;5052708;28;20349;-80
2021/11/02 13:23:56;;;;;;;5.33;2.07;;;;;;;;;;5052388;28;20207;-80
2021/11/02 13:26:24;;;;;;;3.77;2.00;;;;;;;;;;5050396;28;20282;-80
2021/11/02 13:28:53;;;;;;;4.33;2.07;;;;;;;;;;5052386;28;20210;-80
2021/11/02 13:31:27;;;;;;;7.43;2.20;;;;;;;;;;5052405;28;20199;-80
2021/11/02 13:34:03;;;;;;;5.83;2.10;;;;;;;;;;5052120;28;20616;-80
2021/11/02 13:36:32;;;;;;;5.07;2.27;;;;;;;;;;5051644;28;20223;-79
2021/11/02 13:39:00;;;;;;;7.97;2.10;;;;;;;;;;5052416;28;20279;-80
2021/11/02 13:41:29;;;;;;;4.43;1.80;;;12.00;99.90;;;;;;5051566;28;20742;-80
2021/11/02 13:44:00;;;;;;;4.60;1.90;;;12.20;99.90;;;;;;5052356;28;20199;-80
2021/11/02 13:46:30;;;;;;;6.00;1.77;;;11.90;99.90;;;;;;5051948;28;20196;-79
2021/11/02 13:48:58;;;;;;;4.43;1.90;;;11.70;99.90;;;;;;5044575;28;20291;-80
2021/11/02 13:51:26;;;;;;;5.70;2.03;;;11.50;99.90;;;;;;5051123;28;20234;-79
2021/11/02 13:53:54;;;;;;;6.90;1.90;;;11.10;99.90;;;;;;5051916;28;20650;-80
2021/11/02 13:56:23;;;;;;;4.00;1.97;;;10.50;99.90;;;;;;5047735;28;20307;-79
2021/11/02 13:58:51;;;;;;;6.43;2.40;;;10.40;99.90;;;;;;5051235;28;20230;-80
2021/11/02 14:01:26;;;;;;;5.03;2.10;;;10.40;99.90;;;;;;5051448;28;20196;-80
2021/11/02 14:04:05;;;;;;;5.50;1.83;;;10.40;99.90;;;;;;5050515;28;20227;-80
2021/11/02 14:06:37;;;;;;;7.07;1.80;;;10.40;99.90;;;;;;5050915;28;20204;-80
2021/11/02 14:09:08;;;;;;;6.03;2.00;;;10.40;99.90;;;;;;5051685;28;20359;-80
2021/11/02 14:11:37;;;;;;;7.63;2.20;;;10.30;99.90;;;;;;5051750;28;20617;-80
2021/11/02 14:14:05;;;;;;;4.60;2.50;;;10.30;99.90;;;;;;5051281;28;20227;-80
2021/11/02 14:16:36;;;;;;;6.43;4.90;;;10.30;99.90;;;;;;5051548;28;20258;-80
2021/11/02 14:19:05;;;;;;;12.10;7.30;;;10.20;99.90;;;;;;5036474;28;20608;-80
2021/11/02 14:21:50;;;;;;;10.27;7.43;;;10.20;99.90;;;;;;5051996;28;20588;-80
2021/11/02 14:24:30;;;;;;;6.20;4.67;;;10.20;99.90;;;;;;5052517;28;20346;-80
2021/11/02 14:26:57;;;;;;;5.03;4.00;;;10.10;99.90;;;;;;5051454;28;20329;-80
2021/11/02 14:29:59;;;;;;;7.03;3.20;;;10.10;99.90;;;;;;5050201;28;20211;-80
2021/11/02 14:32:54;;;;;;;5.77;3.30;;;10.20;99.90;;;;;;5044734;28;20202;-79
2021/11/02 14:35:48;;;;;;;5.90;3.10;;;10.30;99.90;;;;;;5047062;28;20298;-80
2021/11/02 14:38:17;;;;;;;6.03;3.10;;;10.50;99.90;;;;;;5051766;28;20655;-80
2021/11/02 14:40:48;;;;;;;7.07;2.93;;;10.50;99.90;;;;;;5051464;28;20250;-80
2021/11/02 14:43:23;;;;;;;3.73;2.50;;;10.50;99.90;;;;;;5051850;28;20346;-80
2021/11/02 14:45:53;;;;;;;6.37;2.53;;;10.50;99.90;;;;;;5051343;28;20241;-80
2021/11/02 14:48:33;;;;;;;4.10;1.97;;;10.50;99.90;;;;;;5051129;28;20671;-80
2021/11/02 14:51:00;;;;;;;4.67;1.97;;;10.40;99.90;;;;;;5051386;28;20202;-80
2021/11/02 14:53:32;;;;;;;6.70;2.20;;;10.50;99.90;;;;;;5051449;28;20228;-80
2021/11/02 14:56:03;;;;;;;4.30;2.00;;;10.50;99.90;;;;;;5050781;28;20254;-79
2021/11/02 14:58:47;;;;;;;2.90;1.77;;;10.50;99.90;;;;;;5051365;28;20223;-80
2021/11/02 15:01:17;;;;;;;5.73;2.00;;;10.60;99.90;;;;;;5051486;28;20290;-79
2021/11/02 15:03:58;;;;;;;3.77;2.00;;;10.50;99.90;;;;;;5050859;28;20691;-79
2021/11/02 15:06:31;;;;;;;4.93;2.40;;;10.50;99.90;;;;;;5051110;28;20203;-80
2021/11/02 15:08:59;;;;;;;7.63;2.80;;;10.40;99.90;;;;;;5050588;28;20614;-80
2021/11/02 15:11:27;;;;;;;6.30;3.17;;;10.40;99.90;;;;;;5051119;28;20237;-80
2021/11/02 15:13:56;;;;;;;8.53;4.60;;;10.30;99.90;;;;;;5051370;28;20270;-80
2021/11/02 15:16:24;;;;;;;5.97;4.07;;;10.30;99.90;;;;;;5050906;28;20262;-80
2021/11/02 15:18:53;;;;;;;6.17;3.93;;;10.40;99.90;;;;;;5050753;28;20279;-80
2021/11/02 15:21:30;;;;;;;8.43;4.37;;;10.40;99.90;;;;;;5051089;28;20289;-80
2021/11/02 15:23:57;;;;;;;6.20;3.50;;;10.50;99.90;;;;;;5051039;28;20257;-80
2021/11/02 15:26:24;;;;;;;6.57;3.80;;;10.40;99.90;;;;;;5054326;28;20250;-80
2021/11/02 15:28:53;;;;;;;7.17;4.20;;;10.40;99.90;;;;;;5054814;28;20293;-80
2021/11/02 15:31:22;;;;;;;7.27;3.80;;;10.40;99.90;;;;;;5054256;28;20286;-80
2021/11/02 15:33:49;;;;;;;8.60;3.63;;;10.30;99.90;;;;;;5054470;28;20234;-80
2021/11/02 15:36:19;;;;;;;7.53;3.70;;;10.40;99.90;;;;;;5054175;28;20303;-80
2021/11/02 15:39:04;;;;;;;8.17;3.67;;;10.40;99.90;;;;;;5036919;28;20279;-79
2021/11/02 15:41:33;;;;;;;11.27;4.40;;;10.30;99.90;;;;;;5052697;28;20302;-80
2021/11/02 15:44:03;;;;;;;9.37;4.40;;;10.30;99.90;;;;;;5054083;28;20200;-80
2021/11/02 15:46:36;;;;;;;9.03;5.03;;;10.30;99.90;;;;;;5053821;28;20216;-80
2021/11/02 15:49:05;;;;;;;9.73;7.60;;;10.30;99.90;;;;;;5054288;28;20282;-79
2021/11/02 15:51:34;;;;;;;11.30;6.00;;;10.30;99.90;;;;;;5054262;28;20755;-80
2021/11/02 15:54:07;;;;;;;22.53;16.53;;;10.20;99.90;;;;;;5053431;28;20203;-81
2021/11/02 15:56:34;;;;;;;19.57;14.23;;;10.30;99.90;;;;;;5053994;28;20229;-80
2021/11/02 15:59:05;;;;;;;16.43;12.87;;;10.30;99.90;;;;;;5054393;28;20286;-80
2021/11/02 16:01:43;;;;;;;13.83;8.53;;;10.30;99.90;;;;;;5053618;28;20318;-80
2021/11/02 16:04:16;;;;;;;7.40;5.70;;;10.30;99.90;;;;;;5054441;28;20763;-80
2021/11/02 16:07:07;;;;;;;14.87;9.87;;;10.30;99.90;;;;;;5053717;28;20196;-80
2021/11/02 16:09:50;;;;;;;11.03;9.27;;;10.30;99.90;;;;;;5054469;28;20239;-80
2021/11/02 16:12:21;;;;;;;10.23;9.17;;;10.30;99.90;;;;;;5052474;28;20377;-80
2021/11/02 16:14:59;;;;;;;11.17;9.10;;;10.30;99.90;;;;;;5052678;28;20676;-80
2021/11/02 16:17:28;;;;;;;10.07;6.67;;;10.20;99.90;;;;;;5053916;28;20234;-80
2021/11/02 16:19:58;;;;;;;12.23;7.60;;;10.20;99.90;;;;;;5053683;28;20224;-80
2021/11/02 16:22:26;;;;;;;8.93;6.50;;;10.20;99.90;;;;;;5054266;28;20286;-80
2021/11/02 16:25:08;;;;;;;14.03;9.57;;;10.10;99.90;;;;;;5053591;28;20239;-80
2021/11/02 16:27:35;;;;;;;9.47;6.30;;;10.10;99.90;;;;;;5053884;28;20642;-80
2021/11/02 16:30:16;;;;;;;9.00;5.80;;;10.00;99.90;;;;;;5052903;28;20237;-80
2021/11/02 16:32:45;;;;;;;10.13;5.83;;;10.10;99.90;;;;;;5052460;28;20208;-81
2021/11/02 16:35:13;;;;;;;7.50;5.53;;;10.00;99.90;;;;;;5052771;28;20571;-81
2021/11/02 16:37:41;;;;;;;9.70;5.40;;;9.90;99.90;;;;;;5052782;28;20234;-81
2021/11/02 16:40:22;;;;;;;14.10;5.30;;;9.90;99.90;;;;;;5052790;28;20195;-81
2021/11/02 16:42:58;;;;;;;12.63;5.03;;;9.90;99.90;;;;;;5035489;28;20269;-81
2021/11/02 16:45:32;;;;;;;8.77;4.73;;;9.80;99.90;;;;;;5053750;28;20199;-81
2021/11/02 16:48:01;;;;;;;8.27;4.53;;;9.70;99.90;;;;;;5036155;28;20295;-81
2021/11/02 16:50:30;;;;;;;7.13;4.63;;;9.80;99.90;;;;;;5053261;28;20610;-81
2021/11/02 16:53:16;;;;;;;9.20;4.70;;;9.70;99.90;;;;;;5053189;28;20237;-81
2021/11/02 16:55:44;;;;;;;9.87;4.77;;;9.70;99.90;;;;;;5035309;28;20215;-81
2021/11/02 16:58:30;;;;;;;7.60;4.57;;;9.70;99.90;;;;;;5052950;28;20204;-81
2021/11/02 17:01:31;;;;;;;10.17;4.97;;;9.70;99.90;;;;;;5035416;28;20199;-81
2021/11/02 17:04:13;;;;;;;12.50;6.20;;;9.60;99.90;;;;;;5050590;28;20196;-80
2021/11/02 17:06:41;;;;;;;10.00;6.33;;;9.70;99.90;;;;;;5054042;28;20230;-81
2021/11/02 17:09:18;;;;;;;8.43;6.33;;;9.60;99.90;;;;;;5053153;28;20203;-81
2021/11/02 17:11:52;;;;;;;9.37;6.37;;;9.60;99.90;;;;;;5053133;28;20283;-81
2021/11/02 17:14:19;;;;;;;10.67;6.80;;;9.60;99.90;;;;;;5034543;28;20322;-81
2021/11/02 17:16:54;;;;;;;9.87;6.33;;;9.60;99.90;;;;;;5052888;28;20277;-81
2021/11/02 17:19:23;;;;;;;12.87;6.90;;;9.60;99.90;;;;;;5052788;28;20294;-80
2021/11/02 17:21:53;;;;;;;10.93;6.30;;;9.60;99.90;;;;;;5053166;28;20287;-81
2021/11/02 17:24:20;;;;;;;8.93;5.83;;;9.50;99.90;;;;;;5052049;28;20195;-80
2021/11/02 17:26:48;;;;;;;6.63;4.47;;;9.60;99.90;;;;;;5052202;28;20253;-81
2021/11/02 17:29:17;;;;;;;6.43;4.40;;;9.40;99.90;;;;;;5052204;28;20241;-80
2021/11/02 17:31:46;;;;;;;4.93;3.40;;;9.40;99.90;;;;;;5052770;28;20215;-81
2021/11/02 17:34:24;;;;;;;4.50;3.00;;;9.40;99.90;;;;;;5049814;28;20200;-83
2021/11/02 17:36:54;;;;;;;3.13;2.03;;;9.10;99.90;;;;;;5050101;28;20260;-82
2021/11/02 17:39:21;;;;;;;3.60;1.57;;;9.00;99.90;;;;;;5051455;28;20232;-84
2021/11/02 17:41:50;;;;;;;3.63;1.53;;;9.00;99.90;;;;;;5051235;28;20703;-83
2021/11/02 17:44:30;;;;;;;2.37;1.50;;;9.00;99.90;;;;;;5051353;28;20228;-81
2021/11/02 17:46:58;;;;;;;11.00;7.70;;;8.90;99.90;;;;;;5042666;28;20284;-81
2021/11/02 17:49:29;;;;;;;57.73;35.67;;;8.90;99.90;;;;;;5049103;28;20229;-80
2021/11/02 17:52:01;;;;;;;72.27;47.67;;;9.00;99.90;;;;;;5045227;28;20231;-80
2021/11/02 17:54:28;;;;;;;69.70;46.73;;;9.00;99.90;;;;;;5047279;28;20247;-80
2021/11/02 17:56:56;;;;;;;48.83;35.23;;;9.10;99.90;;;;;;5050886;28;20252;-81
2021/11/02 17:59:24;;;;;;;31.50;22.40;;;9.10;99.90;;;;;;5050243;28;20227;-81
2021/11/02 18:01:55;;;;;;;10.80;8.33;;;9.10;99.90;;;;;;5051990;28;20272;-81
2021/11/02 18:04:23;;;;;;;10.57;5.50;;;9.00;99.90;;;;;;5051513;28;20235;-81
2021/11/02 18:06:50;;;;;;;13.60;9.07;;;9.10;99.90;;;;;;5049604;28;20617;-81
2021/11/02 18:09:19;;;;;;;26.50;15.07;;;8.90;99.90;;;;;;5051967;28;20227;-81